TimeCST,TemperatureF,Dew PointF,Humidity,Sea Level PressureIn,VisibilityMPH,Wind Direction,Wind SpeedMPH,Gust SpeedMPH,PrecipitationIn,Events,Conditions,WindDirDegrees,DateUTC
12:15 AM,52.2,50.4,94,30.00,7.0,North,4.6,-,N/A,Thunderstorm,Unknown,360,2014-03-06 06:15:00
12:35 AM,52.2,50.5,94,30.00,7.0,NNE,4.6,-,N/A,,Unknown,30,2014-03-06 06:35:00
12:55 AM,52.2,50.5,94,29.99,5.0,NNE,4.6,-,N/A,,Mist,30,2014-03-06 06:55:00
1:15 AM,52.0,50.4,94,29.97,5.0,North,5.8,-,N/A,,Mist,360,2014-03-06 07:15:00
1:35 AM,51.8,50.0,94,29.96,7.0,Calm,Calm,-,N/A,,Unknown,0,2014-03-06 07:35:00
1:55 AM,51.8,50.2,94,29.95,7.0,NNE,5.8,-,N/A,,Unknown,30,2014-03-06 07:55:00
2:15 AM,51.8,50.2,94,29.96,7.0,North,5.8,-,N/A,,Unknown,350,2014-03-06 08:15:00
2:35 AM,52.0,50.4,94,29.96,7.0,North,5.8,-,N/A,,Unknown,10,2014-03-06 08:35:00
2:55 AM,51.8,50.2,94,29.95,7.0,North,5.8,-,N/A,,Unknown,10,2014-03-06 08:55:00
3:15 AM,52.0,50.4,94,29.95,7.0,North,6.9,-,N/A,,Unknown,350,2014-03-06 09:15:00
3:35 AM,51.8,50.2,94,29.96,7.0,NNW,6.9,-,N/A,,Unknown,330,2014-03-06 09:35:00
3:55 AM,51.8,50.2,94,29.96,7.0,NNW,8.1,-,N/A,,Unknown,340,2014-03-06 09:55:00
4:15 AM,51.8,50.0,94,29.96,7.0,NNW,4.6,-,N/A,,Unknown,330,2014-03-06 10:15:00
4:35 AM,51.1,49.5,94,29.96,5.0,NW,4.6,-,N/A,,Mist,320,2014-03-06 10:35:00
4:55 AM,50.9,49.1,94,29.95,7.0,NNW,4.6,-,N/A,,Unknown,340,2014-03-06 10:55:00
5:48 AM,51.8,50.0,94,29.98,5.0,NW,10.4,-,N/A,,Overcast,310,2014-03-06 11:48:00
6:50 AM,51.8,48.2,88,30.00,5.0,NNW,9.2,-,N/A,,Overcast,330,2014-03-06 12:50:00
7:50 AM,51.8,48.2,88,30.00,3.0,North,6.9,-,N/A,,Overcast,350,2014-03-06 13:50:00
8:50 AM,51.8,50.0,94,30.02,1.0,North,6.9,-,N/A,,Overcast,350,2014-03-06 14:50:00
9:50 AM,51.8,50.0,94,30.02,3.0,West,9.2,-,N/A,,Overcast,280,2014-03-06 15:50:00
10:49 AM,51.8,50.0,94,30.03,2.0,West,9.2,-,N/A,,Overcast,280,2014-03-06 16:49:00
11:50 AM,53.6,48.2,82,30.01,2.0,NW,13.8,-,N/A,,Overcast,320,2014-03-06 17:50:00
12:50 PM,51.8,46.4,82,29.99,3.0,NW,11.5,-,N/A,,Overcast,310,2014-03-06 18:50:00
1:47 PM,51.8,46.4,82,29.98,7.0,NW,12.7,-,N/A,,Overcast,310,2014-03-06 19:47:00
2:50 PM,51.8,44.6,76,29.98,7.0,WNW,13.8,-,N/A,,Overcast,300,2014-03-06 20:50:00
3:50 PM,50.0,44.6,82,29.99,7.0,NW,13.8,-,N/A,,Overcast,320,2014-03-06 21:50:00
4:50 PM,48.2,42.8,82,29.99,7.0,NW,15.0,23.0,N/A,,Overcast,320,2014-03-06 22:50:00
5:50 PM,48.2,42.8,82,29.99,7.0,NW,17.3,-,N/A,,Overcast,320,2014-03-06 23:50:00
6:15 PM,47.5,41.4,79,29.99,7.0,NNW,16.1,19.6,N/A,,Unknown,330,2014-03-07 00:15:00
6:35 PM,47.3,41.5,80,30.00,7.0,NW,9.2,-,N/A,,Unknown,320,2014-03-07 00:35:00
6:50 PM,46.4,41.0,81,30.01,7.0,NW,17.3,-,N/A,,Overcast,320,2014-03-07 00:50:00
6:55 PM,46.8,41.4,81,30.01,7.0,NW,15.0,19.6,N/A,,Unknown,320,2014-03-07 00:55:00
7:15 PM,46.2,41.4,83,30.01,5.0,NW,10.4,18.4,N/A,,Haze,320,2014-03-07 01:15:00
7:35 PM,45.7,41.2,84,30.01,5.0,NNW,11.5,17.3,N/A,,Haze,330,2014-03-07 01:35:00
7:55 PM,45.5,41.4,85,30.02,4.0,NW,11.5,-,N/A,,Haze,320,2014-03-07 01:55:00
8:15 PM,45.7,41.7,86,30.02,5.0,NNW,9.2,-,N/A,,Mist,330,2014-03-07 02:15:00
8:35 PM,45.7,41.5,85,30.03,5.0,NNW,13.8,18.4,N/A,,Mist,340,2014-03-07 02:35:00
8:55 PM,45.7,41.2,84,30.03,7.0,NNW,12.7,16.1,N/A,,Unknown,340,2014-03-07 02:55:00
9:15 PM,45.7,41.5,85,30.04,7.0,NNW,10.4,-,N/A,,Unknown,330,2014-03-07 03:15:00
9:35 PM,45.7,41.4,85,30.04,7.0,NNW,9.2,-,N/A,,Unknown,330,2014-03-07 03:35:00
9:55 PM,45.7,41.4,85,30.04,7.0,NW,6.9,-,N/A,,Unknown,320,2014-03-07 03:55:00
10:15 PM,45.5,41.0,84,30.05,7.0,NNW,6.9,-,N/A,,Unknown,330,2014-03-07 04:15:00
10:40 PM,45.5,41.4,85,30.06,7.0,NW,5.8,-,N/A,,Unknown,310,2014-03-07 04:40:00
10:55 PM,45.5,41.0,84,30.07,7.0,NW,5.8,-,N/A,,Unknown,310,2014-03-07 04:55:00
11:15 PM,45.5,41.0,84,30.07,7.0,NW,8.1,-,N/A,,Unknown,320,2014-03-07 05:15:00
11:35 PM,45.5,41.0,84,30.06,7.0,NW,8.1,-,N/A,,Unknown,320,2014-03-07 05:35:00
11:55 PM,45.5,41.0,84,30.06,7.0,NW,6.9,-,N/A,,Unknown,320,2014-03-07 05:55:00